WMKK/KUL METAR and TAF weather

Enter ICAO airport designator
Station Type Date Time Source
WMKK METAR 2020/10/20 16:30 UTC NOAA

WMKK 201630Z 00000KT 9999 FEW017CB 26/24 Q1010 NOSIG


Station Type Date Time Source
WMKK Decoded METAR 2020/10/20 16:30 UTC NOAA

Sepang/KL International Airport, Malaysia (WMKK) 02-44N 101-42E 22M
Oct 20, 2020 - 12:30 PM EDT / 2020.10.20 1630 UTC
Wind: Calm:0
Visibility: greater than 7 mile(s):0
Sky conditions: mostly clear
Weather: Cumulonimbus clouds observed
Temperature: 78 F (26 C)
Dew Point: 75 F (24 C)
Relative Humidity: 88%
Pressure (altimeter): 29.83 in. Hg (1010 hPa)
ob: WMKK 201630Z 00000KT 9999 FEW017CB 26/24 Q1010 NOSIG
cycle: 16

Station Type Date Time Source
WMKK TAF 2020/10/20 12:12 UTC NOAA

TAF WMKK 201100Z 2012/2118 VRB03KT 9999 FEW030
TEMPO 2022/2102 24008G20KT 4000 TSRA FEW010 FEW016CB SCT020

Example: see airport list